sensor_id;sensor_type;location;lat;lon;timestamp;P1;durP1;ratioP1;P2;durP2;ratioP2
6117;SDS011;3089;48.202;11.510;2023-02-28T00:00:40;4.63;;;1.57;;
6117;SDS011;3089;48.202;11.510;2023-02-28T00:03:10;5.00;;;1.80;;
6117;SDS011;3089;48.202;11.510;2023-02-28T00:05:40;3.27;;;1.47;;
6117;SDS011;3089;48.202;11.510;2023-02-28T00:08:08;4.33;;;1.80;;
6117;SDS011;3089;48.202;11.510;2023-02-28T00:10:36;4.90;;;2.10;;
6117;SDS011;3089;48.202;11.510;2023-02-28T00:13:05;4.57;;;2.30;;
6117;SDS011;3089;48.202;11.510;2023-02-28T00:15:33;6.83;;;2.03;;
6117;SDS011;3089;48.202;11.510;2023-02-28T00:18:02;5.10;;;2.20;;
6117;SDS011;3089;48.202;11.510;2023-02-28T00:20:31;4.87;;;1.97;;
6117;SDS011;3089;48.202;11.510;2023-02-28T00:22:59;4.80;;;2.03;;
6117;SDS011;3089;48.202;11.510;2023-02-28T00:25:27;4.53;;;2.30;;
6117;SDS011;3089;48.202;11.510;2023-02-28T00:27:55;4.67;;;2.10;;
6117;SDS011;3089;48.202;11.510;2023-02-28T00:30:23;4.20;;;1.83;;
6117;SDS011;3089;48.202;11.510;2023-02-28T00:32:50;4.40;;;2.03;;
6117;SDS011;3089;48.202;11.510;2023-02-28T00:35:18;4.20;;;1.90;;
6117;SDS011;3089;48.202;11.510;2023-02-28T00:37:47;4.47;;;2.00;;
6117;SDS011;3089;48.202;11.510;2023-02-28T00:40:16;9.87;;;2.07;;
6117;SDS011;3089;48.202;11.510;2023-02-28T00:42:43;6.50;;;2.30;;
6117;SDS011;3089;48.202;11.510;2023-02-28T00:45:11;6.83;;;2.20;;
6117;SDS011;3089;48.202;11.510;2023-02-28T00:47:39;3.40;;;1.80;;
6117;SDS011;3089;48.202;11.510;2023-02-28T00:50:08;6.33;;;2.37;;
6117;SDS011;3089;48.202;11.510;2023-02-28T00:52:36;5.37;;;2.33;;
6117;SDS011;3089;48.202;11.510;2023-02-28T00:55:06;6.73;;;2.50;;
6117;SDS011;3089;48.202;11.510;2023-02-28T00:57:34;7.03;;;2.10;;
6117;SDS011;3089;48.202;11.510;2023-02-28T01:00:03;5.87;;;2.20;;
6117;SDS011;3089;48.202;11.510;2023-02-28T01:02:32;3.10;;;1.83;;
6117;SDS011;3089;48.202;11.510;2023-02-28T01:05:00;6.27;;;2.40;;
6117;SDS011;3089;48.202;11.510;2023-02-28T01:07:28;4.67;;;2.10;;
6117;SDS011;3089;48.202;11.510;2023-02-28T01:09:55;5.60;;;1.97;;
6117;SDS011;3089;48.202;11.510;2023-02-28T01:12:25;4.20;;;2.30;;
6117;SDS011;3089;48.202;11.510;2023-02-28T01:14:56;5.53;;;2.17;;
6117;SDS011;3089;48.202;11.510;2023-02-28T01:17:24;4.60;;;2.30;;
6117;SDS011;3089;48.202;11.510;2023-02-28T01:19:52;8.73;;;2.70;;
6117;SDS011;3089;48.202;11.510;2023-02-28T01:22:21;5.07;;;1.80;;
6117;SDS011;3089;48.202;11.510;2023-02-28T01:24:49;4.03;;;2.07;;
6117;SDS011;3089;48.202;11.510;2023-02-28T01:27:17;5.53;;;2.40;;
6117;SDS011;3089;48.202;11.510;2023-02-28T01:29:46;5.60;;;2.30;;
6117;SDS011;3089;48.202;11.510;2023-02-28T01:32:14;6.27;;;2.40;;
6117;SDS011;3089;48.202;11.510;2023-02-28T01:34:42;3.80;;;1.80;;
6117;SDS011;3089;48.202;11.510;2023-02-28T01:37:09;4.10;;;1.90;;
6117;SDS011;3089;48.202;11.510;2023-02-28T01:39:37;3.33;;;1.93;;
6117;SDS011;3089;48.202;11.510;2023-02-28T01:42:05;4.23;;;1.93;;
6117;SDS011;3089;48.202;11.510;2023-02-28T01:47:25;6.33;;;1.73;;
6117;SDS011;3089;48.202;11.510;2023-02-28T01:49:56;4.53;;;2.17;;
6117;SDS011;3089;48.202;11.510;2023-02-28T01:52:25;6.23;;;2.37;;
6117;SDS011;3089;48.202;11.510;2023-02-28T01:54:55;4.73;;;2.10;;
6117;SDS011;3089;48.202;11.510;2023-02-28T01:57:28;5.20;;;2.53;;
6117;SDS011;3089;48.202;11.510;2023-02-28T02:00:06;4.47;;;2.00;;
6117;SDS011;3089;48.202;11.510;2023-02-28T02:02:36;3.40;;;2.00;;
6117;SDS011;3089;48.202;11.510;2023-02-28T02:05:06;4.97;;;2.03;;
6117;SDS011;3089;48.202;11.510;2023-02-28T02:07:37;5.60;;;2.70;;
6117;SDS011;3089;48.202;11.510;2023-02-28T02:10:10;4.87;;;2.27;;
6117;SDS011;3089;48.202;11.510;2023-02-28T02:12:49;6.30;;;1.87;;
6117;SDS011;3089;48.202;11.510;2023-02-28T02:15:31;4.13;;;1.70;;
6117;SDS011;3089;48.202;11.510;2023-02-28T02:18:03;5.27;;;2.43;;
6117;SDS011;3089;48.202;11.510;2023-02-28T02:23:33;6.73;;;2.30;;
6117;SDS011;3089;48.202;11.510;2023-02-28T02:26:23;5.40;;;1.93;;
6117;SDS011;3089;48.202;11.510;2023-02-28T02:29:23;4.47;;;2.50;;
6117;SDS011;3089;48.202;11.510;2023-02-28T02:32:21;7.67;;;1.90;;
6117;SDS011;3089;48.202;11.510;2023-02-28T02:35:11;6.13;;;2.13;;
6117;SDS011;3089;48.202;11.510;2023-02-28T02:37:43;6.20;;;2.60;;
6117;SDS011;3089;48.202;11.510;2023-02-28T02:40:18;6.50;;;2.50;;
6117;SDS011;3089;48.202;11.510;2023-02-28T02:42:50;5.80;;;2.67;;
6117;SDS011;3089;48.202;11.510;2023-02-28T02:45:24;8.40;;;2.63;;
6117;SDS011;3089;48.202;11.510;2023-02-28T02:47:55;4.27;;;1.77;;
6117;SDS011;3089;48.202;11.510;2023-02-28T02:50:29;5.70;;;2.23;;
6117;SDS011;3089;48.202;11.510;2023-02-28T02:53:01;4.83;;;2.10;;
6117;SDS011;3089;48.202;11.510;2023-02-28T02:55:31;5.50;;;2.63;;
6117;SDS011;3089;48.202;11.510;2023-02-28T02:58:04;7.07;;;2.70;;
6117;SDS011;3089;48.202;11.510;2023-02-28T03:00:36;5.03;;;2.73;;
6117;SDS011;3089;48.202;11.510;2023-02-28T03:03:08;6.87;;;2.50;;
6117;SDS011;3089;48.202;11.510;2023-02-28T03:05:41;5.70;;;2.73;;
6117;SDS011;3089;48.202;11.510;2023-02-28T03:08:13;4.47;;;2.43;;
6117;SDS011;3089;48.202;11.510;2023-02-28T03:10:41;6.43;;;2.30;;
6117;SDS011;3089;48.202;11.510;2023-02-28T03:19:25;7.57;;;2.57;;
6117;SDS011;3089;48.202;11.510;2023-02-28T03:22:19;5.60;;;2.60;;
6117;SDS011;3089;48.202;11.510;2023-02-28T03:25:02;8.23;;;2.90;;
6117;SDS011;3089;48.202;11.510;2023-02-28T03:27:35;5.90;;;2.10;;
6117;SDS011;3089;48.202;11.510;2023-02-28T03:30:10;4.80;;;2.30;;
6117;SDS011;3089;48.202;11.510;2023-02-28T03:32:42;4.83;;;2.30;;
6117;SDS011;3089;48.202;11.510;2023-02-28T03:35:19;3.73;;;2.00;;
6117;SDS011;3089;48.202;11.510;2023-02-28T03:37:52;7.47;;;2.70;;
6117;SDS011;3089;48.202;11.510;2023-02-28T03:40:26;5.00;;;2.40;;
6117;SDS011;3089;48.202;11.510;2023-02-28T03:42:59;5.83;;;2.57;;
6117;SDS011;3089;48.202;11.510;2023-02-28T03:45:30;9.50;;;2.93;;
6117;SDS011;3089;48.202;11.510;2023-02-28T03:48:05;5.23;;;2.40;;
6117;SDS011;3089;48.202;11.510;2023-02-28T03:50:39;7.80;;;2.73;;
6117;SDS011;3089;48.202;11.510;2023-02-28T03:53:10;8.20;;;3.10;;
6117;SDS011;3089;48.202;11.510;2023-02-28T03:55:41;5.63;;;2.83;;
6117;SDS011;3089;48.202;11.510;2023-02-28T03:58:12;5.73;;;2.70;;
6117;SDS011;3089;48.202;11.510;2023-02-28T04:00:49;7.70;;;2.43;;
6117;SDS011;3089;48.202;11.510;2023-02-28T04:03:22;6.43;;;2.90;;
6117;SDS011;3089;48.202;11.510;2023-02-28T04:05:50;7.07;;;2.63;;
6117;SDS011;3089;48.202;11.510;2023-02-28T04:08:21;6.00;;;3.20;;
6117;SDS011;3089;48.202;11.510;2023-02-28T04:10:51;7.00;;;3.30;;
6117;SDS011;3089;48.202;11.510;2023-02-28T04:13:23;8.13;;;2.83;;
6117;SDS011;3089;48.202;11.510;2023-02-28T04:15:51;5.30;;;2.50;;
6117;SDS011;3089;48.202;11.510;2023-02-28T04:18:19;7.40;;;2.80;;
6117;SDS011;3089;48.202;11.510;2023-02-28T04:20:47;4.73;;;2.60;;
6117;SDS011;3089;48.202;11.510;2023-02-28T04:23:14;6.30;;;2.80;;
6117;SDS011;3089;48.202;11.510;2023-02-28T04:25:44;8.60;;;3.40;;
6117;SDS011;3089;48.202;11.510;2023-02-28T04:28:11;6.63;;;3.30;;
6117;SDS011;3089;48.202;11.510;2023-02-28T04:30:39;7.20;;;3.23;;
6117;SDS011;3089;48.202;11.510;2023-02-28T04:33:07;11.03;;;4.27;;
6117;SDS011;3089;48.202;11.510;2023-02-28T04:35:35;5.00;;;3.20;;
6117;SDS011;3089;48.202;11.510;2023-02-28T04:38:03;5.87;;;2.97;;
6117;SDS011;3089;48.202;11.510;2023-02-28T04:40:31;7.90;;;3.37;;
6117;SDS011;3089;48.202;11.510;2023-02-28T04:43:00;5.80;;;3.50;;
6117;SDS011;3089;48.202;11.510;2023-02-28T04:45:29;8.20;;;3.90;;
6117;SDS011;3089;48.202;11.510;2023-02-28T04:47:59;9.77;;;3.87;;
6117;SDS011;3089;48.202;11.510;2023-02-28T04:50:26;8.70;;;4.00;;
6117;SDS011;3089;48.202;11.510;2023-02-28T04:52:54;8.03;;;3.13;;
6117;SDS011;3089;48.202;11.510;2023-02-28T04:55:23;11.30;;;4.30;;
6117;SDS011;3089;48.202;11.510;2023-02-28T04:57:51;10.97;;;4.67;;
6117;SDS011;3089;48.202;11.510;2023-02-28T05:00:20;9.30;;;4.27;;
6117;SDS011;3089;48.202;11.510;2023-02-28T05:02:48;7.03;;;3.80;;
6117;SDS011;3089;48.202;11.510;2023-02-28T05:05:16;11.63;;;5.00;;
6117;SDS011;3089;48.202;11.510;2023-02-28T05:07:45;8.13;;;3.97;;
6117;SDS011;3089;48.202;11.510;2023-02-28T05:10:13;12.80;;;5.00;;
6117;SDS011;3089;48.202;11.510;2023-02-28T05:12:41;9.37;;;4.43;;
6117;SDS011;3089;48.202;11.510;2023-02-28T05:15:09;9.63;;;4.67;;
6117;SDS011;3089;48.202;11.510;2023-02-28T05:17:41;8.60;;;4.57;;
6117;SDS011;3089;48.202;11.510;2023-02-28T05:20:10;7.47;;;4.30;;
6117;SDS011;3089;48.202;11.510;2023-02-28T05:22:41;10.60;;;4.80;;
6117;SDS011;3089;48.202;11.510;2023-02-28T05:25:10;10.80;;;5.03;;
6117;SDS011;3089;48.202;11.510;2023-02-28T05:27:41;9.20;;;3.53;;
6117;SDS011;3089;48.202;11.510;2023-02-28T05:30:10;7.53;;;3.73;;
6117;SDS011;3089;48.202;11.510;2023-02-28T05:32:39;10.90;;;4.60;;
6117;SDS011;3089;48.202;11.510;2023-02-28T05:35:09;8.50;;;4.40;;
6117;SDS011;3089;48.202;11.510;2023-02-28T05:37:38;10.93;;;4.50;;
6117;SDS011;3089;48.202;11.510;2023-02-28T05:40:07;10.67;;;5.80;;
6117;SDS011;3089;48.202;11.510;2023-02-28T05:42:36;13.00;;;5.47;;
6117;SDS011;3089;48.202;11.510;2023-02-28T05:45:05;17.20;;;6.87;;
6117;SDS011;3089;48.202;11.510;2023-02-28T05:47:34;13.80;;;4.90;;
6117;SDS011;3089;48.202;11.510;2023-02-28T05:50:04;11.40;;;4.87;;
6117;SDS011;3089;48.202;11.510;2023-02-28T05:52:32;9.20;;;4.40;;
6117;SDS011;3089;48.202;11.510;2023-02-28T05:55:00;11.77;;;4.90;;
6117;SDS011;3089;48.202;11.510;2023-02-28T05:57:28;9.10;;;4.63;;
6117;SDS011;3089;48.202;11.510;2023-02-28T05:59:56;9.63;;;4.00;;
6117;SDS011;3089;48.202;11.510;2023-02-28T06:02:24;9.10;;;5.10;;
6117;SDS011;3089;48.202;11.510;2023-02-28T06:04:52;10.73;;;4.90;;
6117;SDS011;3089;48.202;11.510;2023-02-28T06:07:21;14.93;;;5.37;;
6117;SDS011;3089;48.202;11.510;2023-02-28T06:09:49;9.90;;;5.37;;
6117;SDS011;3089;48.202;11.510;2023-02-28T06:12:17;13.03;;;5.00;;
6117;SDS011;3089;48.202;11.510;2023-02-28T06:14:45;9.63;;;5.70;;
6117;SDS011;3089;48.202;11.510;2023-02-28T06:17:13;11.20;;;5.20;;
6117;SDS011;3089;48.202;11.510;2023-02-28T06:19:40;9.40;;;5.13;;
6117;SDS011;3089;48.202;11.510;2023-02-28T06:22:08;8.33;;;4.90;;
6117;SDS011;3089;48.202;11.510;2023-02-28T06:24:37;13.30;;;6.50;;
6117;SDS011;3089;48.202;11.510;2023-02-28T06:27:05;10.27;;;5.33;;
6117;SDS011;3089;48.202;11.510;2023-02-28T06:29:35;10.00;;;5.43;;
6117;SDS011;3089;48.202;11.510;2023-02-28T06:32:05;14.67;;;6.10;;
6117;SDS011;3089;48.202;11.510;2023-02-28T06:34:33;10.43;;;5.27;;
6117;SDS011;3089;48.202;11.510;2023-02-28T06:37:01;11.50;;;5.80;;
6117;SDS011;3089;48.202;11.510;2023-02-28T06:39:29;10.00;;;5.63;;
6117;SDS011;3089;48.202;11.510;2023-02-28T06:41:58;12.93;;;5.30;;
6117;SDS011;3089;48.202;11.510;2023-02-28T06:44:26;22.50;;;5.63;;
6117;SDS011;3089;48.202;11.510;2023-02-28T06:47:01;12.90;;;6.47;;
6117;SDS011;3089;48.202;11.510;2023-02-28T06:49:30;11.83;;;5.60;;
6117;SDS011;3089;48.202;11.510;2023-02-28T06:51:59;15.77;;;7.90;;
6117;SDS011;3089;48.202;11.510;2023-02-28T06:54:27;15.02;;;7.32;;
6117;SDS011;3089;48.202;11.510;2023-02-28T06:56:54;14.07;;;6.97;;
6117;SDS011;3089;48.202;11.510;2023-02-28T06:59:25;11.40;;;6.60;;
6117;SDS011;3089;48.202;11.510;2023-02-28T07:01:53;13.17;;;6.60;;
6117;SDS011;3089;48.202;11.510;2023-02-28T07:04:22;16.47;;;7.77;;
6117;SDS011;3089;48.202;11.510;2023-02-28T07:06:50;15.13;;;7.90;;
6117;SDS011;3089;48.202;11.510;2023-02-28T07:09:18;17.23;;;7.23;;
6117;SDS011;3089;48.202;11.510;2023-02-28T07:11:46;13.27;;;6.60;;
6117;SDS011;3089;48.202;11.510;2023-02-28T07:14:13;15.63;;;6.77;;
6117;SDS011;3089;48.202;11.510;2023-02-28T07:16:43;12.90;;;6.50;;
6117;SDS011;3089;48.202;11.510;2023-02-28T07:19:12;10.60;;;5.77;;
6117;SDS011;3089;48.202;11.510;2023-02-28T07:21:39;13.93;;;6.70;;
6117;SDS011;3089;48.202;11.510;2023-02-28T07:24:07;11.10;;;6.03;;
6117;SDS011;3089;48.202;11.510;2023-02-28T07:26:35;12.00;;;6.47;;
6117;SDS011;3089;48.202;11.510;2023-02-28T07:29:03;14.17;;;7.27;;
6117;SDS011;3089;48.202;11.510;2023-02-28T07:31:31;13.07;;;7.33;;
6117;SDS011;3089;48.202;11.510;2023-02-28T07:34:00;17.93;;;7.33;;
6117;SDS011;3089;48.202;11.510;2023-02-28T07:36:29;14.97;;;7.67;;
6117;SDS011;3089;48.202;11.510;2023-02-28T07:38:57;15.80;;;8.60;;
6117;SDS011;3089;48.202;11.510;2023-02-28T07:41:26;13.40;;;7.30;;
6117;SDS011;3089;48.202;11.510;2023-02-28T07:43:56;15.73;;;9.10;;
6117;SDS011;3089;48.202;11.510;2023-02-28T07:46:25;13.97;;;6.87;;
6117;SDS011;3089;48.202;11.510;2023-02-28T07:48:56;18.00;;;8.23;;
6117;SDS011;3089;48.202;11.510;2023-02-28T07:51:26;17.40;;;8.90;;
6117;SDS011;3089;48.202;11.510;2023-02-28T07:53:55;14.80;;;6.67;;
6117;SDS011;3089;48.202;11.510;2023-02-28T07:56:23;16.00;;;7.70;;
6117;SDS011;3089;48.202;11.510;2023-02-28T07:58:50;15.70;;;8.07;;
6117;SDS011;3089;48.202;11.510;2023-02-28T08:01:18;17.07;;;8.37;;
6117;SDS011;3089;48.202;11.510;2023-02-28T08:03:47;14.67;;;8.20;;
6117;SDS011;3089;48.202;11.510;2023-02-28T08:06:16;16.10;;;8.30;;
6117;SDS011;3089;48.202;11.510;2023-02-28T08:08:46;17.40;;;8.67;;
6117;SDS011;3089;48.202;11.510;2023-02-28T08:11:15;15.30;;;7.57;;
6117;SDS011;3089;48.202;11.510;2023-02-28T08:13:43;18.23;;;11.00;;
6117;SDS011;3089;48.202;11.510;2023-02-28T08:16:12;15.63;;;8.00;;
6117;SDS011;3089;48.202;11.510;2023-02-28T08:18:43;14.73;;;7.90;;
6117;SDS011;3089;48.202;11.510;2023-02-28T08:21:11;20.17;;;10.20;;
6117;SDS011;3089;48.202;11.510;2023-02-28T08:23:39;14.80;;;8.97;;
6117;SDS011;3089;48.202;11.510;2023-02-28T08:26:08;13.07;;;6.03;;
6117;SDS011;3089;48.202;11.510;2023-02-28T08:28:36;18.07;;;9.40;;
6117;SDS011;3089;48.202;11.510;2023-02-28T08:31:06;18.80;;;9.50;;
6117;SDS011;3089;48.202;11.510;2023-02-28T08:33:35;18.13;;;9.50;;
6117;SDS011;3089;48.202;11.510;2023-02-28T08:36:05;14.33;;;8.17;;
6117;SDS011;3089;48.202;11.510;2023-02-28T08:38:34;13.93;;;8.63;;
6117;SDS011;3089;48.202;11.510;2023-02-28T08:41:03;16.20;;;8.30;;
6117;SDS011;3089;48.202;11.510;2023-02-28T08:43:34;13.20;;;7.77;;
6117;SDS011;3089;48.202;11.510;2023-02-28T08:46:03;19.70;;;9.27;;
6117;SDS011;3089;48.202;11.510;2023-02-28T08:48:32;19.70;;;9.67;;
6117;SDS011;3089;48.202;11.510;2023-02-28T08:51:04;11.73;;;6.10;;
6117;SDS011;3089;48.202;11.510;2023-02-28T08:53:35;16.17;;;8.30;;
6117;SDS011;3089;48.202;11.510;2023-02-28T08:56:04;16.93;;;8.97;;
6117;SDS011;3089;48.202;11.510;2023-02-28T08:58:35;9.90;;;6.00;;
6117;SDS011;3089;48.202;11.510;2023-02-28T09:01:07;15.23;;;7.47;;
6117;SDS011;3089;48.202;11.510;2023-02-28T09:03:36;15.87;;;8.30;;
6117;SDS011;3089;48.202;11.510;2023-02-28T09:06:04;20.90;;;8.80;;
6117;SDS011;3089;48.202;11.510;2023-02-28T09:08:32;20.60;;;8.90;;
6117;SDS011;3089;48.202;11.510;2023-02-28T09:11:00;17.70;;;9.47;;
6117;SDS011;3089;48.202;11.510;2023-02-28T09:13:29;13.50;;;7.70;;
6117;SDS011;3089;48.202;11.510;2023-02-28T09:15:59;18.93;;;9.20;;
6117;SDS011;3089;48.202;11.510;2023-02-28T09:18:29;16.07;;;9.37;;
6117;SDS011;3089;48.202;11.510;2023-02-28T09:20:57;15.60;;;9.77;;
6117;SDS011;3089;48.202;11.510;2023-02-28T09:23:25;12.20;;;7.00;;
6117;SDS011;3089;48.202;11.510;2023-02-28T09:25:54;18.43;;;9.33;;
6117;SDS011;3089;48.202;11.510;2023-02-28T09:28:22;17.70;;;11.03;;
6117;SDS011;3089;48.202;11.510;2023-02-28T09:30:51;19.20;;;10.50;;
6117;SDS011;3089;48.202;11.510;2023-02-28T09:33:21;11.80;;;6.63;;
6117;SDS011;3089;48.202;11.510;2023-02-28T09:35:50;17.57;;;8.30;;
6117;SDS011;3089;48.202;11.510;2023-02-28T09:38:24;19.10;;;9.27;;
6117;SDS011;3089;48.202;11.510;2023-02-28T09:40:53;16.53;;;8.50;;
6117;SDS011;3089;48.202;11.510;2023-02-28T09:43:23;12.30;;;7.87;;
6117;SDS011;3089;48.202;11.510;2023-02-28T09:45:55;15.80;;;7.97;;
6117;SDS011;3089;48.202;11.510;2023-02-28T09:48:29;18.00;;;10.10;;
6117;SDS011;3089;48.202;11.510;2023-02-28T09:51:05;14.67;;;7.90;;
6117;SDS011;3089;48.202;11.510;2023-02-28T09:53:42;16.20;;;7.90;;
6117;SDS011;3089;48.202;11.510;2023-02-28T09:56:21;12.90;;;6.60;;
6117;SDS011;3089;48.202;11.510;2023-02-28T09:58:54;15.87;;;7.40;;
6117;SDS011;3089;48.202;11.510;2023-02-28T10:01:27;12.97;;;7.00;;
6117;SDS011;3089;48.202;11.510;2023-02-28T10:04:05;15.83;;;7.67;;
6117;SDS011;3089;48.202;11.510;2023-02-28T10:06:41;13.87;;;8.03;;
6117;SDS011;3089;48.202;11.510;2023-02-28T10:09:14;14.70;;;7.37;;
6117;SDS011;3089;48.202;11.510;2023-02-28T10:11:46;13.70;;;7.87;;
6117;SDS011;3089;48.202;11.510;2023-02-28T10:14:16;13.60;;;7.50;;
6117;SDS011;3089;48.202;11.510;2023-02-28T10:16:47;17.50;;;8.90;;
6117;SDS011;3089;48.202;11.510;2023-02-28T10:19:20;18.40;;;8.47;;
6117;SDS011;3089;48.202;11.510;2023-02-28T10:21:53;15.50;;;7.10;;
6117;SDS011;3089;48.202;11.510;2023-02-28T10:24:26;16.43;;;8.70;;
6117;SDS011;3089;48.202;11.510;2023-02-28T10:26:59;13.50;;;7.90;;
6117;SDS011;3089;48.202;11.510;2023-02-28T10:29:29;17.03;;;9.57;;
6117;SDS011;3089;48.202;11.510;2023-02-28T10:32:00;12.57;;;6.53;;
6117;SDS011;3089;48.202;11.510;2023-02-28T10:34:32;16.20;;;7.83;;
6117;SDS011;3089;48.202;11.510;2023-02-28T10:36:59;19.73;;;8.43;;
6117;SDS011;3089;48.202;11.510;2023-02-28T10:39:34;14.30;;;7.40;;
6117;SDS011;3089;48.202;11.510;2023-02-28T10:42:18;18.20;;;8.80;;
6117;SDS011;3089;48.202;11.510;2023-02-28T10:45:10;14.43;;;8.50;;
6117;SDS011;3089;48.202;11.510;2023-02-28T10:47:42;16.40;;;7.50;;
6117;SDS011;3089;48.202;11.510;2023-02-28T10:50:28;17.00;;;8.07;;
6117;SDS011;3089;48.202;11.510;2023-02-28T10:55:56;12.83;;;6.60;;
6117;SDS011;3089;48.202;11.510;2023-02-28T10:58:26;21.00;;;6.97;;
6117;SDS011;3089;48.202;11.510;2023-02-28T11:00:55;11.87;;;6.37;;
6117;SDS011;3089;48.202;11.510;2023-02-28T11:03:25;14.30;;;7.23;;
6117;SDS011;3089;48.202;11.510;2023-02-28T11:06:03;13.70;;;6.90;;
6117;SDS011;3089;48.202;11.510;2023-02-28T11:08:33;14.27;;;7.57;;
6117;SDS011;3089;48.202;11.510;2023-02-28T11:11:03;11.37;;;5.97;;
6117;SDS011;3089;48.202;11.510;2023-02-28T11:13:33;14.00;;;6.97;;
6117;SDS011;3089;48.202;11.510;2023-02-28T11:16:05;16.07;;;8.90;;
6117;SDS011;3089;48.202;11.510;2023-02-28T11:18:36;14.57;;;8.17;;
6117;SDS011;3089;48.202;11.510;2023-02-28T11:21:11;15.00;;;8.23;;
6117;SDS011;3089;48.202;11.510;2023-02-28T11:23:45;12.77;;;7.33;;
6117;SDS011;3089;48.202;11.510;2023-02-28T11:26:16;11.90;;;7.57;;
6117;SDS011;3089;48.202;11.510;2023-02-28T11:29:09;14.30;;;7.37;;
6117;SDS011;3089;48.202;11.510;2023-02-28T11:31:43;13.70;;;7.17;;
6117;SDS011;3089;48.202;11.510;2023-02-28T11:34:22;12.80;;;7.07;;
6117;SDS011;3089;48.202;11.510;2023-02-28T11:36:54;13.97;;;6.60;;
6117;SDS011;3089;48.202;11.510;2023-02-28T11:39:23;12.30;;;6.67;;
6117;SDS011;3089;48.202;11.510;2023-02-28T11:41:55;14.80;;;8.30;;
6117;SDS011;3089;48.202;11.510;2023-02-28T11:44:35;13.70;;;7.57;;
6117;SDS011;3089;48.202;11.510;2023-02-28T11:47:11;13.90;;;6.50;;
6117;SDS011;3089;48.202;11.510;2023-02-28T11:49:46;13.03;;;7.30;;
6117;SDS011;3089;48.202;11.510;2023-02-28T11:52:25;11.37;;;6.30;;
6117;SDS011;3089;48.202;11.510;2023-02-28T11:55:08;15.80;;;7.90;;
6117;SDS011;3089;48.202;11.510;2023-02-28T11:57:51;11.33;;;6.03;;
6117;SDS011;3089;48.202;11.510;2023-02-28T12:00:33;12.37;;;7.60;;
6117;SDS011;3089;48.202;11.510;2023-02-28T12:03:15;15.77;;;8.07;;
6117;SDS011;3089;48.202;11.510;2023-02-28T12:05:54;13.90;;;7.50;;
6117;SDS011;3089;48.202;11.510;2023-02-28T12:08:46;12.80;;;6.90;;
6117;SDS011;3089;48.202;11.510;2023-02-28T12:11:25;14.50;;;7.20;;
6117;SDS011;3089;48.202;11.510;2023-02-28T12:14:09;12.80;;;7.50;;
6117;SDS011;3089;48.202;11.510;2023-02-28T12:16:57;11.03;;;6.67;;
6117;SDS011;3089;48.202;11.510;2023-02-28T12:19:34;13.47;;;6.70;;
6117;SDS011;3089;48.202;11.510;2023-02-28T12:22:27;12.40;;;7.13;;
6117;SDS011;3089;48.202;11.510;2023-02-28T12:28:04;11.60;;;7.20;;
6117;SDS011;3089;48.202;11.510;2023-02-28T12:30:37;13.13;;;7.13;;
6117;SDS011;3089;48.202;11.510;2023-02-28T12:33:09;14.10;;;7.77;;
6117;SDS011;3089;48.202;11.510;2023-02-28T12:35:44;12.90;;;6.87;;
6117;SDS011;3089;48.202;11.510;2023-02-28T12:38:18;12.80;;;7.13;;
6117;SDS011;3089;48.202;11.510;2023-02-28T12:40:51;14.67;;;7.77;;
6117;SDS011;3089;48.202;11.510;2023-02-28T12:43:25;12.37;;;5.87;;
6117;SDS011;3089;48.202;11.510;2023-02-28T12:45:58;11.83;;;6.97;;
6117;SDS011;3089;48.202;11.510;2023-02-28T12:48:31;12.13;;;7.17;;
6117;SDS011;3089;48.202;11.510;2023-02-28T12:51:05;12.43;;;7.40;;
6117;SDS011;3089;48.202;11.510;2023-02-28T12:53:37;12.60;;;6.80;;
6117;SDS011;3089;48.202;11.510;2023-02-28T12:56:16;14.32;;;7.70;;
6117;SDS011;3089;48.202;11.510;2023-02-28T12:58:49;13.97;;;7.33;;
6117;SDS011;3089;48.202;11.510;2023-02-28T13:01:35;15.10;;;7.23;;
6117;SDS011;3089;48.202;11.510;2023-02-28T13:07:42;13.03;;;6.20;;
6117;SDS011;3089;48.202;11.510;2023-02-28T13:10:36;12.10;;;7.37;;
6117;SDS011;3089;48.202;11.510;2023-02-28T13:13:11;16.70;;;7.80;;
6117;SDS011;3089;48.202;11.510;2023-02-28T13:15:58;13.53;;;7.67;;
6117;SDS011;3089;48.202;11.510;2023-02-28T13:18:37;11.00;;;5.77;;
6117;SDS011;3089;48.202;11.510;2023-02-28T13:21:07;12.70;;;7.50;;
6117;SDS011;3089;48.202;11.510;2023-02-28T13:29:41;12.57;;;5.87;;
6117;SDS011;3089;48.202;11.510;2023-02-28T13:38:24;13.67;;;6.83;;
6117;SDS011;3089;48.202;11.510;2023-02-28T13:44:07;10.87;;;5.53;;
6117;SDS011;3089;48.202;11.510;2023-02-28T13:47:16;12.10;;;6.30;;
6117;SDS011;3089;48.202;11.510;2023-02-28T13:49:47;14.43;;;6.80;;
6117;SDS011;3089;48.202;11.510;2023-02-28T13:52:17;9.53;;;5.97;;
6117;SDS011;3089;48.202;11.510;2023-02-28T13:57:50;13.80;;;7.07;;
6117;SDS011;3089;48.202;11.510;2023-02-28T14:00:44;12.07;;;7.20;;
6117;SDS011;3089;48.202;11.510;2023-02-28T14:03:35;13.50;;;7.20;;
6117;SDS011;3089;48.202;11.510;2023-02-28T14:06:14;13.20;;;7.60;;
6117;SDS011;3089;48.202;11.510;2023-02-28T14:08:52;12.90;;;7.27;;
6117;SDS011;3089;48.202;11.510;2023-02-28T14:11:25;12.43;;;7.60;;
6117;SDS011;3089;48.202;11.510;2023-02-28T14:13:58;11.90;;;6.93;;
6117;SDS011;3089;48.202;11.510;2023-02-28T14:16:27;10.93;;;6.47;;
6117;SDS011;3089;48.202;11.510;2023-02-28T14:19:05;14.57;;;7.60;;
6117;SDS011;3089;48.202;11.510;2023-02-28T14:21:39;13.00;;;7.90;;
6117;SDS011;3089;48.202;11.510;2023-02-28T14:24:40;12.80;;;6.93;;
6117;SDS011;3089;48.202;11.510;2023-02-28T14:27:23;12.80;;;7.13;;
6117;SDS011;3089;48.202;11.510;2023-02-28T14:33:22;11.23;;;5.97;;
6117;SDS011;3089;48.202;11.510;2023-02-28T14:35:58;12.17;;;7.37;;
6117;SDS011;3089;48.202;11.510;2023-02-28T14:38:35;10.27;;;6.50;;
6117;SDS011;3089;48.202;11.510;2023-02-28T14:41:12;12.37;;;6.10;;
6117;SDS011;3089;48.202;11.510;2023-02-28T14:43:48;13.20;;;6.40;;
6117;SDS011;3089;48.202;11.510;2023-02-28T14:46:18;13.20;;;7.17;;
6117;SDS011;3089;48.202;11.510;2023-02-28T14:48:47;15.60;;;6.50;;
6117;SDS011;3089;48.202;11.510;2023-02-28T14:51:21;14.50;;;7.97;;
6117;SDS011;3089;48.202;11.510;2023-02-28T14:53:52;10.73;;;5.43;;
6117;SDS011;3089;48.202;11.510;2023-02-28T14:56:26;12.17;;;6.90;;
6117;SDS011;3089;48.202;11.510;2023-02-28T14:58:59;12.70;;;6.90;;
6117;SDS011;3089;48.202;11.510;2023-02-28T15:01:27;12.13;;;7.00;;
6117;SDS011;3089;48.202;11.510;2023-02-28T15:03:59;14.17;;;6.20;;
6117;SDS011;3089;48.202;11.510;2023-02-28T15:06:30;13.13;;;6.87;;
6117;SDS011;3089;48.202;11.510;2023-02-28T15:09:13;13.77;;;7.80;;
6117;SDS011;3089;48.202;11.510;2023-02-28T15:11:45;9.70;;;5.30;;
6117;SDS011;3089;48.202;11.510;2023-02-28T15:14:17;11.93;;;6.60;;
6117;SDS011;3089;48.202;11.510;2023-02-28T15:16:48;9.90;;;6.43;;
6117;SDS011;3089;48.202;11.510;2023-02-28T15:19:22;12.50;;;7.47;;
6117;SDS011;3089;48.202;11.510;2023-02-28T15:21:54;10.90;;;6.30;;
6117;SDS011;3089;48.202;11.510;2023-02-28T15:24:29;10.70;;;6.40;;
6117;SDS011;3089;48.202;11.510;2023-02-28T15:27:03;12.57;;;6.83;;
6117;SDS011;3089;48.202;11.510;2023-02-28T15:29:36;14.97;;;7.70;;
6117;SDS011;3089;48.202;11.510;2023-02-28T15:32:20;13.63;;;7.50;;
6117;SDS011;3089;48.202;11.510;2023-02-28T15:34:54;13.20;;;7.40;;
6117;SDS011;3089;48.202;11.510;2023-02-28T15:37:28;14.53;;;7.00;;
6117;SDS011;3089;48.202;11.510;2023-02-28T15:40:11;13.37;;;7.63;;
6117;SDS011;3089;48.202;11.510;2023-02-28T15:42:42;11.40;;;6.97;;
6117;SDS011;3089;48.202;11.510;2023-02-28T15:45:28;11.90;;;6.60;;
6117;SDS011;3089;48.202;11.510;2023-02-28T15:48:04;15.50;;;6.37;;
6117;SDS011;3089;48.202;11.510;2023-02-28T15:50:39;12.77;;;7.23;;
6117;SDS011;3089;48.202;11.510;2023-02-28T15:53:13;16.43;;;7.60;;
6117;SDS011;3089;48.202;11.510;2023-02-28T15:55:43;14.37;;;7.27;;
6117;SDS011;3089;48.202;11.510;2023-02-28T15:58:11;10.40;;;5.97;;
6117;SDS011;3089;48.202;11.510;2023-02-28T16:00:40;13.27;;;6.50;;
6117;SDS011;3089;48.202;11.510;2023-02-28T16:03:25;11.67;;;6.07;;
6117;SDS011;3089;48.202;11.510;2023-02-28T16:06:19;11.30;;;6.50;;